AIC2015 VIDP-EGLL
Flight info
| Callsign | AIC2015 |
|---|---|
| Flight time | N/A |
| Altitude | 38000 |
| Route | SURAM6A SURAM G333 MERUN L750 RANAH B449 ETRAP/N0494F400 B449 DUKAN L850 ADEKI DCT TETRO DCT SARPI UG67 TBN UM11 CRM UL746 ODERO DCT LUGEB DCT BUDOP DCT BEGLA DCT DEXIT DCT INBED DCT BOMBI DCT ADKUV DCT SOGRI DCT DENUT L608 LOGAN |
| Aircraft | A359/H-SDE2E3GHIJ3J4J5LM1ORWXY/LB1D1 |
Departure
| Time | 2026-04-30 08:17 |
|---|---|
| Airport | Indira Gandhi International Airport (VIDP) |
Arrival
| Time | N/A |
|---|---|
| Airport | London Heathrow Airport (EGLL) |
| Time | Latitude | Longitude | Altitude | Speed | Heading |
|---|---|---|---|---|---|
| 2026-04-30 07:54 | 28.56590 | 77.11574 | 786 ft | 0 kts | 193° |
| 2026-04-30 08:08 | 28.56591 | 77.11575 | 786 ft | 0 kts | 193° |
| 2026-04-30 08:08 | 28.56597 | 77.11576 | 786 ft | 1 kts | 193° |
| 2026-04-30 08:08 | 28.56608 | 77.11579 | 786 ft | 1 kts | 193° |
| 2026-04-30 08:08 | 28.56620 | 77.11581 | 786 ft | 1 kts | 168° |
| 2026-04-30 08:09 | 28.56629 | 77.11578 | 786 ft | 0 kts | 131° |
| 2026-04-30 08:09 | 28.56631 | 77.11572 | 786 ft | 0 kts | 107° |
| 2026-04-30 08:11 | 28.56631 | 77.11573 | 786 ft | 0 kts | 106° |
| 2026-04-30 08:11 | 28.56628 | 77.11584 | 786 ft | 2 kts | 106° |
| 2026-04-30 08:12 | 28.56620 | 77.11621 | 786 ft | 7 kts | 103° |
| 2026-04-30 08:12 | 28.56604 | 77.11700 | 786 ft | 12 kts | 104° |
| 2026-04-30 08:12 | 28.56584 | 77.11790 | 786 ft | 7 kts | 104° |
| 2026-04-30 08:12 | 28.56576 | 77.11826 | 786 ft | 4 kts | 103° |
| 2026-04-30 08:13 | 28.56576 | 77.11864 | 786 ft | 4 kts | 71° |
| 2026-04-30 08:13 | 28.56597 | 77.11880 | 786 ft | 3 kts | 22° |
| 2026-04-30 08:13 | 28.56624 | 77.11888 | 786 ft | 4 kts | 12° |
| 2026-04-30 08:13 | 28.56654 | 77.11892 | 786 ft | 4 kts | 1° |
| 2026-04-30 08:14 | 28.56687 | 77.11890 | 786 ft | 4 kts | 356° |
| 2026-04-30 08:14 | 28.56723 | 77.11890 | 786 ft | 5 kts | 359° |
| 2026-04-30 08:14 | 28.56761 | 77.11890 | 786 ft | 5 kts | 360° |
| 2026-04-30 08:14 | 28.56802 | 77.11890 | 786 ft | 5 kts | 356° |
| 2026-04-30 08:15 | 28.56827 | 77.11861 | 786 ft | 6 kts | 279° |
| 2026-04-30 08:15 | 28.56831 | 77.11810 | 786 ft | 7 kts | 284° |
| 2026-04-30 08:15 | 28.56866 | 77.11765 | 786 ft | 8 kts | 326° |
| 2026-04-30 08:15 | 28.56919 | 77.11727 | 786 ft | 9 kts | 327° |
| 2026-04-30 08:16 | 28.56974 | 77.11678 | 786 ft | 10 kts | 309° |
| 2026-04-30 08:16 | 28.56992 | 77.11599 | 786 ft | 7 kts | 272° |
| 2026-04-30 08:16 | 28.56994 | 77.11526 | 786 ft | 20 kts | 271° |
| 2026-04-30 08:16 | 28.57009 | 77.11092 | 787 ft | 88 kts | 272° |
| 2026-04-30 08:17 | 28.57026 | 77.10149 | 787 ft | 146 kts | 271° |
| 2026-04-30 08:17 | 28.57051 | 77.08868 | 1023 ft | 169 kts | 271° |
| 2026-04-30 08:17 | 28.57099 | 77.07520 | 1577 ft | 173 kts | 277° |
| 2026-04-30 08:17 | 28.57622 | 77.06303 | 2122 ft | 177 kts | 315° |
| 2026-04-30 08:18 | 28.58539 | 77.05376 | 2639 ft | 181 kts | 312° |
| 2026-04-30 08:18 | 28.59252 | 77.04170 | 2888 ft | 188 kts | 288° |
| 2026-04-30 08:18 | 28.59507 | 77.02663 | 3105 ft | 198 kts | 277° |
| 2026-04-30 08:18 | 28.59681 | 77.01064 | 3296 ft | 213 kts | 275° |
| 2026-04-30 08:19 | 28.59854 | 76.99331 | 3579 ft | 225 kts | 276° |
| 2026-04-30 08:19 | 28.60057 | 76.97508 | 3851 ft | 239 kts | 276° |
| 2026-04-30 08:19 | 28.60276 | 76.95596 | 4127 ft | 252 kts | 276° |
| 2026-04-30 08:19 | 28.60514 | 76.93577 | 4411 ft | 265 kts | 278° |
| 2026-04-30 08:20 | 28.60768 | 76.91476 | 4847 ft | 272 kts | 277° |
| 2026-04-30 08:20 | 28.61017 | 76.89345 | 5406 ft | 274 kts | 275° |
| 2026-04-30 08:20 | 28.61143 | 76.87185 | 5969 ft | 275 kts | 271° |
| 2026-04-30 08:20 | 28.61237 | 76.85003 | 6523 ft | 277 kts | 272° |
| 2026-04-30 08:21 | 28.61338 | 76.82816 | 7087 ft | 279 kts | 272° |
| 2026-04-30 08:21 | 28.61434 | 76.80621 | 7667 ft | 279 kts | 274° |
| 2026-04-30 08:21 | 28.61540 | 76.78416 | 8223 ft | 281 kts | 274° |
| 2026-04-30 08:21 | 28.61657 | 76.76165 | 8617 ft | 282 kts | 275° |
| 2026-04-30 08:22 | 28.61773 | 76.73927 | 8727 ft | 283 kts | 274° |
| 2026-04-30 08:22 | 28.61895 | 76.71703 | 8733 ft | 281 kts | 275° |
| 2026-04-30 08:22 | 28.62107 | 76.69495 | 8746 ft | 283 kts | 280° |
| 2026-04-30 08:22 | 28.62453 | 76.67275 | 9072 ft | 288 kts | 281° |
| 2026-04-30 08:23 | 28.62814 | 76.65040 | 9680 ft | 286 kts | 282° |
| 2026-04-30 08:23 | 28.63174 | 76.62814 | 10125 ft | 292 kts | 282° |
| 2026-04-30 08:23 | 28.63556 | 76.60495 | 10364 ft | 304 kts | 282° |
| 2026-04-30 08:23 | 28.63951 | 76.58054 | 10603 ft | 316 kts | 282° |
| 2026-04-30 08:24 | 28.64356 | 76.55546 | 10834 ft | 328 kts | 282° |